createdAt,value
2023-02-08T00:01:00.375Z,-1.50
2023-02-08T00:03:44.428Z,-1.66
2023-02-08T00:06:28.817Z,-1.76
2023-02-08T00:09:13.108Z,-2.44
2023-02-08T00:11:56.945Z,-1.63
2023-02-08T00:14:42.151Z,-2.05
2023-02-08T00:17:26.181Z,-1.91
2023-02-08T00:20:12.405Z,-1.73
2023-02-08T00:22:56.438Z,-1.42
2023-02-08T00:25:41.375Z,-1.66
2023-02-08T00:28:25.129Z,-1.44
2023-02-08T00:31:10.454Z,-1.49
2023-02-08T00:33:54.382Z,-1.82
2023-02-08T00:36:38.245Z,-1.79
2023-02-08T00:39:22.171Z,-1.74
2023-02-08T00:42:06.191Z,-1.55
2023-02-08T00:44:50.005Z,-1.53
2023-02-08T00:47:35.114Z,-1.57
2023-02-08T00:50:19.191Z,-1.18
2023-02-08T00:53:03.013Z,-1.31
2023-02-08T00:55:52.436Z,-1.40
2023-02-08T00:58:36.704Z,-1.92
2023-02-08T01:01:20.760Z,-2.27
2023-02-08T01:04:07.010Z,-2.06
2023-02-08T01:06:50.976Z,-2.05
2023-02-08T01:09:35.352Z,-2.23
2023-02-08T01:12:20.450Z,-1.98
2023-02-08T01:15:05.395Z,-2.26
2023-02-08T01:17:49.335Z,-2.08
2023-02-08T01:20:36.172Z,-2.46
2023-02-08T01:23:20.790Z,-2.71
2023-02-08T01:26:05.043Z,-2.57
2023-02-08T01:28:50.247Z,-2.78
2023-02-08T01:31:36.780Z,-2.49
2023-02-08T01:34:20.611Z,-2.53
2023-02-08T01:37:05.950Z,-2.64
2023-02-08T01:39:50.246Z,-2.72
2023-02-08T01:42:34.149Z,-2.59
2023-02-08T01:45:26.544Z,-2.94
2023-02-08T01:48:15.088Z,-2.86
2023-02-08T01:51:04.005Z,-2.73
2023-02-08T01:53:51.961Z,-2.50
2023-02-08T01:56:39.059Z,-2.99
2023-02-08T01:59:27.338Z,-2.89
2023-02-08T02:02:15.643Z,-3.02
2023-02-08T02:04:59.547Z,-3.21
2023-02-08T02:07:47.446Z,-2.91
2023-02-08T02:10:34.581Z,-2.58
2023-02-08T02:13:20.844Z,-2.81
2023-02-08T02:16:04.997Z,-3.09
2023-02-08T02:18:49.072Z,-3.11
2023-02-08T02:21:47.266Z,-3.69
2023-02-08T02:25:02.314Z,-3.69
2023-02-08T02:28:10.824Z,-3.43
2023-02-08T02:31:48.270Z,-3.59
2023-02-08T02:34:42.183Z,-3.37
2023-02-08T02:37:41.683Z,-3.88
2023-02-08T02:40:35.844Z,-3.58
2023-02-08T02:43:41.733Z,-3.57
2023-02-08T02:46:29.092Z,-3.80
2023-02-08T02:49:19.394Z,-3.83
2023-02-08T02:52:11.887Z,-3.82
2023-02-08T02:55:00.429Z,-3.91
2023-02-08T02:57:48.456Z,-3.90
2023-02-08T03:00:32.874Z,-3.74
2023-02-08T03:03:21.474Z,-3.65
2023-02-08T03:06:08.577Z,-3.88
2023-02-08T03:09:15.568Z,-3.89
2023-02-08T03:12:11.516Z,-4.30
2023-02-08T03:15:00.000Z,-3.75
2023-02-08T03:18:01.575Z,-3.86
2023-02-08T03:20:56.780Z,-3.91
2023-02-08T03:23:47.234Z,-4.13
2023-02-08T03:26:37.298Z,-4.06
2023-02-08T03:29:29.158Z,-4.19
2023-02-08T03:32:18.553Z,-4.06
2023-02-08T03:35:06.165Z,-4.06
2023-02-08T03:37:54.572Z,-3.90
2023-02-08T03:40:40.839Z,-4.32
2023-02-08T03:43:30.238Z,-4.22
2023-02-08T03:46:19.272Z,-4.04
2023-02-08T03:49:08.745Z,-4.29
2023-02-08T03:51:54.552Z,-4.27
2023-02-08T03:54:43.652Z,-4.30
2023-02-08T03:57:30.891Z,-4.39
2023-02-08T04:00:18.763Z,-4.39
2023-02-08T04:03:08.191Z,-4.36
2023-02-08T04:05:52.337Z,-4.26
2023-02-08T04:08:36.398Z,-4.39
2023-02-08T04:11:20.554Z,-4.14
2023-02-08T04:14:04.407Z,-4.72
2023-02-08T04:16:49.924Z,-4.41
2023-02-08T04:19:33.753Z,-4.68
2023-02-08T04:22:17.679Z,-4.71
2023-02-08T04:25:02.170Z,-4.59
2023-02-08T04:27:47.677Z,-4.46
2023-02-08T04:30:31.661Z,-4.53
2023-02-08T04:33:17.047Z,-4.42
2023-02-08T04:36:00.856Z,-4.68
2023-02-08T04:38:44.683Z,-4.46
2023-02-08T04:41:28.482Z,-4.58
2023-02-08T04:44:12.674Z,-4.17
2023-02-08T04:46:56.519Z,-4.16
2023-02-08T04:49:41.717Z,-4.02
2023-02-08T04:52:25.604Z,-3.94
2023-02-08T04:55:10.137Z,-3.85
2023-02-08T04:57:53.929Z,-3.64
2023-02-08T05:00:37.918Z,-3.48
2023-02-08T05:03:21.867Z,-3.94
2023-02-08T05:06:07.821Z,-3.93
2023-02-08T05:08:51.691Z,-3.61
2023-02-08T05:11:35.675Z,-3.69
2023-02-08T05:14:19.424Z,-3.76
2023-02-08T05:17:03.181Z,-3.81
2023-02-08T05:19:47.079Z,-3.52
2023-02-08T05:22:32.832Z,-3.43
2023-02-08T05:25:18.229Z,-3.66
2023-02-08T05:28:02.296Z,-4.16
2023-02-08T05:30:46.464Z,-3.74
2023-02-08T05:33:30.282Z,-3.68
2023-02-08T05:36:14.195Z,-3.58
2023-02-08T05:38:59.629Z,-3.72
2023-02-08T05:41:43.534Z,-3.79
2023-02-08T05:44:27.513Z,-3.85
2023-02-08T05:47:11.481Z,-3.88
2023-02-08T05:49:55.308Z,-3.61
2023-02-08T05:52:39.128Z,-3.22
2023-02-08T05:55:24.372Z,-3.50
2023-02-08T05:58:08.345Z,-3.78
2023-02-08T06:00:53.671Z,-3.53
2023-02-08T06:03:37.687Z,-3.33
2023-02-08T06:06:21.776Z,-3.79
2023-02-08T06:09:06.109Z,-3.84
2023-02-08T06:11:51.485Z,-3.66
2023-02-08T06:14:35.410Z,-3.32
2023-02-08T06:17:19.180Z,-3.37
2023-02-08T06:20:03.003Z,-3.72
2023-02-08T06:22:47.632Z,-3.53
2023-02-08T06:25:31.573Z,-3.30
2023-02-08T06:28:16.915Z,-3.48
2023-02-08T06:31:00.975Z,-3.64
2023-02-08T06:33:44.971Z,-3.53
2023-02-08T06:36:28.832Z,-3.32
2023-02-08T06:39:12.584Z,-3.34
2023-02-08T06:41:56.334Z,-3.39
2023-02-08T06:44:51.368Z,-3.44
2023-02-08T06:47:38.067Z,-3.44
2023-02-08T06:50:24.081Z,-3.22
2023-02-08T06:53:08.076Z,-3.23
2023-02-08T06:55:52.140Z,-3.03
2023-02-08T06:58:36.114Z,-3.16
2023-02-08T07:01:21.454Z,-3.48
2023-02-08T07:04:06.040Z,-3.25
2023-02-08T07:06:50.439Z,-2.81
2023-02-08T07:09:34.897Z,-3.02
2023-02-08T07:12:18.695Z,-3.08
2023-02-08T07:15:02.489Z,-3.02
2023-02-08T07:17:49.072Z,-3.20
2023-02-08T07:20:32.930Z,-3.29
2023-02-08T07:23:16.811Z,-3.37
2023-02-08T07:26:01.751Z,-3.31
2023-02-08T07:28:45.915Z,-3.21
2023-02-08T07:31:29.846Z,-2.95
2023-02-08T07:34:17.164Z,-2.73
2023-02-08T07:37:01.012Z,-2.77
2023-02-08T07:39:45.125Z,-3.00
2023-02-08T07:42:29.008Z,-3.09
2023-02-08T07:45:26.135Z,-2.92
2023-02-08T07:48:10.146Z,-2.59
2023-02-08T07:50:55.553Z,-2.98
2023-02-08T07:53:40.122Z,-2.56
2023-02-08T07:56:24.217Z,-2.59
2023-02-08T07:59:08.523Z,-2.97
2023-02-08T08:01:52.628Z,-2.86
2023-02-08T08:04:36.855Z,-2.83
2023-02-08T08:07:22.296Z,-3.23
2023-02-08T08:10:06.811Z,-3.10
2023-02-08T08:12:50.800Z,-2.81
2023-02-08T08:15:34.954Z,-2.74
2023-02-08T08:18:18.920Z,-2.44
2023-02-08T08:21:02.791Z,-2.77
2023-02-08T08:23:48.029Z,-2.87
2023-02-08T08:26:32.095Z,-2.59
2023-02-08T08:29:15.935Z,-2.58
2023-02-08T08:31:59.850Z,-2.97
2023-02-08T08:34:43.801Z,-2.84
2023-02-08T08:37:27.695Z,-2.91
2023-02-08T08:40:13.289Z,-2.93
2023-02-08T08:42:58.070Z,-2.97
2023-02-08T08:45:42.080Z,-3.10
2023-02-08T08:48:25.846Z,-3.11
2023-02-08T08:51:09.849Z,-2.36
2023-02-08T08:53:53.685Z,-2.73
2023-02-08T08:56:38.990Z,-2.86
2023-02-08T08:59:23.029Z,-2.70
2023-02-08T09:02:06.888Z,-2.84
2023-02-08T09:04:50.770Z,-2.59
2023-02-08T09:07:34.818Z,-2.82
2023-02-08T09:10:18.639Z,-2.75
2023-02-08T09:13:03.959Z,-2.42
2023-02-08T09:15:48.810Z,-2.58
2023-02-08T09:18:32.766Z,-2.58
2023-02-08T09:21:18.921Z,-2.79
2023-02-08T09:24:03.429Z,-3.06
2023-02-08T09:26:47.375Z,-2.98
2023-02-08T09:29:33.770Z,-3.05
2023-02-08T09:32:17.587Z,-2.78
2023-02-08T09:35:02.413Z,-2.48
2023-02-08T09:37:47.137Z,-2.86
2023-02-08T09:40:44.381Z,-2.73
2023-02-08T09:43:41.753Z,-2.55
2023-02-08T09:46:31.343Z,-3.05
2023-02-08T09:49:20.071Z,-2.75
2023-02-08T09:52:08.516Z,-2.75
2023-02-08T09:54:59.605Z,-2.95
2023-02-08T09:57:45.567Z,-2.69
2023-02-08T10:00:36.323Z,-2.91
2023-02-08T10:03:41.537Z,-3.09
2023-02-08T10:06:25.548Z,-2.74
2023-02-08T10:09:14.948Z,-2.96
2023-02-08T10:12:15.827Z,-3.01
2023-02-08T10:15:06.827Z,-3.02
2023-02-08T10:18:29.939Z,-2.93
2023-02-08T10:21:34.170Z,-2.76
2023-02-08T10:24:44.230Z,-2.91
2023-02-08T10:27:39.164Z,-2.91
2023-02-08T10:30:33.250Z,-2.87
2023-02-08T10:33:30.223Z,-2.77
2023-02-08T10:36:37.926Z,-2.92
2023-02-08T10:39:33.251Z,-2.95
2023-02-08T10:42:22.496Z,-3.03
2023-02-08T10:45:27.034Z,-3.43
2023-02-08T10:48:17.210Z,-3.71
2023-02-08T10:51:04.335Z,-3.83
2023-02-08T10:53:56.609Z,-3.49
2023-02-08T10:56:48.000Z,-3.57
2023-02-08T10:59:36.631Z,-3.57
2023-02-08T11:02:26.717Z,-3.79
2023-02-08T11:05:13.445Z,-3.77
2023-02-08T11:08:17.102Z,-3.60
2023-02-08T11:11:13.775Z,-3.61
2023-02-08T11:14:11.218Z,-3.78
2023-02-08T11:16:59.099Z,-3.85
2023-02-08T11:19:49.686Z,-3.84
2023-02-08T11:22:34.762Z,-3.74
2023-02-08T11:25:36.905Z,-4.03
2023-02-08T11:28:31.374Z,-3.65
2023-02-08T11:31:23.558Z,-3.84
2023-02-08T11:34:13.409Z,-3.79
2023-02-08T11:37:02.264Z,-3.89
2023-02-08T11:39:54.535Z,-3.57
2023-02-08T11:42:45.399Z,-3.88
2023-02-08T11:45:34.131Z,-3.77
2023-02-08T11:48:26.934Z,-4.07
2023-02-08T11:51:14.545Z,-3.71
2023-02-08T11:54:00.621Z,-3.81
2023-02-08T11:56:44.581Z,-3.52
2023-02-08T11:59:29.206Z,-3.58
2023-02-08T12:02:31.159Z,-3.92
2023-02-08T12:05:18.988Z,-3.68
2023-02-08T12:08:13.228Z,-4.03
2023-02-08T12:11:16.037Z,-3.98
2023-02-08T12:14:28.129Z,-3.82
2023-02-08T12:17:37.424Z,-3.74
2023-02-08T12:20:39.303Z,-3.49
2023-02-08T12:23:41.039Z,-3.77
2023-02-08T12:26:57.313Z,-3.33
2023-02-08T12:29:48.794Z,-3.25
2023-02-08T12:32:47.516Z,-3.20
2023-02-08T12:36:06.760Z,-2.88
2023-02-08T12:39:25.719Z,-2.86
2023-02-08T12:42:24.163Z,-2.76
2023-02-08T12:45:33.794Z,-2.80
2023-02-08T12:48:32.317Z,-2.48
2023-02-08T12:51:27.727Z,-2.53
2023-02-08T12:54:14.863Z,-2.73
2023-02-08T12:57:02.303Z,-2.39
2023-02-08T12:59:50.757Z,-2.52
2023-02-08T13:02:46.243Z,-2.77
2023-02-08T13:05:36.637Z,-3.15
2023-02-08T13:08:29.147Z,-2.67
2023-02-08T13:11:20.323Z,-3.31
2023-02-08T13:14:10.744Z,-3.34
2023-02-08T13:16:59.678Z,-3.04
2023-02-08T13:20:00.229Z,-3.16
2023-02-08T13:22:44.617Z,-3.07
2023-02-08T13:25:32.817Z,-3.05
2023-02-08T13:28:20.941Z,-3.03
2023-02-08T13:31:09.314Z,-2.94
2023-02-08T13:34:01.657Z,-3.10
2023-02-08T13:36:55.844Z,-2.97
2023-02-08T13:39:42.621Z,-2.98
2023-02-08T13:42:34.575Z,-3.04
2023-02-08T13:45:27.090Z,-2.96
2023-02-08T13:48:14.056Z,-2.97
2023-02-08T13:50:58.558Z,-3.09
2023-02-08T13:54:11.354Z,-3.18
2023-02-08T13:56:55.410Z,-3.00
2023-02-08T13:59:42.252Z,-3.25
2023-02-08T14:02:30.027Z,-3.20
2023-02-08T14:05:50.140Z,-3.20
2023-02-08T14:08:42.452Z,-3.24
2023-02-08T14:11:38.042Z,-3.06
2023-02-08T14:14:25.691Z,-3.20
2023-02-08T14:17:21.302Z,-3.22
2023-02-08T14:20:08.111Z,-3.18
2023-02-08T14:22:54.664Z,-3.09
2023-02-08T14:25:44.862Z,-3.15
2023-02-08T14:28:33.354Z,-2.90
2023-02-08T14:31:19.163Z,-3.08
2023-02-08T14:34:04.589Z,-3.30
2023-02-08T14:36:48.557Z,-3.22
2023-02-08T14:39:34.858Z,-3.17
2023-02-08T14:42:58.012Z,-3.26
2023-02-08T14:45:45.342Z,-3.42
2023-02-08T14:48:31.381Z,-3.04
2023-02-08T14:51:29.689Z,-3.16
2023-02-08T14:54:22.861Z,-3.08
2023-02-08T14:57:16.266Z,-3.11
2023-02-08T15:00:01.996Z,-3.16
2023-02-08T15:02:49.694Z,-3.33
2023-02-08T15:05:42.256Z,-2.98
2023-02-08T15:08:28.851Z,-3.37
2023-02-08T15:11:22.574Z,-3.35
2023-02-08T15:14:07.120Z,-3.47
2023-02-08T15:16:53.640Z,-3.34
2023-02-08T15:19:39.169Z,-3.43
2023-02-08T15:22:34.462Z,-3.42
2023-02-08T15:25:25.762Z,-3.70
2023-02-08T15:28:19.638Z,-3.16
2023-02-08T15:31:06.317Z,-3.49
2023-02-08T15:33:51.028Z,-3.29
2023-02-08T15:36:37.500Z,-3.43
2023-02-08T15:39:33.969Z,-3.48
2023-02-08T15:42:21.202Z,-3.41
2023-02-08T15:45:05.469Z,-3.41
2023-02-08T15:47:49.587Z,-3.43
2023-02-08T15:50:33.700Z,-3.38
2023-02-08T15:53:18.543Z,-3.30
2023-02-08T15:56:05.851Z,-3.40
2023-02-08T15:58:54.991Z,-3.39
2023-02-08T16:01:38.916Z,-3.47
2023-02-08T16:04:23.067Z,-3.49
2023-02-08T16:07:07.059Z,-3.52
2023-02-08T16:09:51.286Z,-3.60
2023-02-08T16:12:36.125Z,-3.49
2023-02-08T16:15:39.016Z,-3.50
2023-02-08T16:18:34.710Z,-3.84
2023-02-08T16:21:27.766Z,-3.66
2023-02-08T16:24:22.630Z,-3.55
2023-02-08T16:27:08.399Z,-3.43
2023-02-08T16:29:52.362Z,-3.52
2023-02-08T16:32:39.750Z,-3.70
2023-02-08T16:35:25.981Z,-3.48
2023-02-08T16:38:11.706Z,-3.65
2023-02-08T16:40:58.039Z,-3.69
2023-02-08T16:43:44.847Z,-3.52
2023-02-08T16:46:28.888Z,-3.67
2023-02-08T16:49:14.156Z,-3.67
2023-02-08T16:51:58.915Z,-3.75
2023-02-08T16:54:42.874Z,-3.59
2023-02-08T16:57:40.885Z,-3.83
2023-02-08T17:00:27.026Z,-3.84
2023-02-08T17:03:10.809Z,-3.89
2023-02-08T17:05:56.108Z,-3.52
2023-02-08T17:08:39.887Z,-3.47
2023-02-08T17:11:23.917Z,-3.41
2023-02-08T17:14:08.842Z,-3.79
2023-02-08T17:16:52.640Z,-3.27
2023-02-08T17:19:36.431Z,-3.63
2023-02-08T17:22:21.669Z,-3.49
2023-02-08T17:25:05.952Z,-3.49
2023-02-08T17:27:53.229Z,-3.35
2023-02-08T17:30:39.323Z,-3.28
2023-02-08T17:33:23.203Z,-3.64
2023-02-08T17:36:08.448Z,-3.50
2023-02-08T17:38:53.689Z,-3.05
2023-02-08T17:41:37.525Z,-3.26
2023-02-08T17:44:21.473Z,-3.31
2023-02-08T17:47:05.929Z,-3.38
2023-02-08T17:49:49.947Z,-3.69
2023-02-08T17:52:33.852Z,-3.33
2023-02-08T17:55:19.845Z,-3.68
2023-02-08T17:58:03.784Z,-3.38
2023-02-08T18:00:47.737Z,-3.78
2023-02-08T18:03:31.704Z,-3.38
2023-02-08T18:06:16.366Z,-3.40
2023-02-08T18:09:00.181Z,-3.50
2023-02-08T18:11:45.419Z,-3.40
2023-02-08T18:14:29.138Z,-3.58
2023-02-08T18:17:12.999Z,-3.59
2023-02-08T18:19:56.732Z,-3.53
2023-02-08T18:22:41.155Z,-3.35
2023-02-08T18:25:24.913Z,-3.69
2023-02-08T18:28:14.668Z,-3.49
2023-02-08T18:31:02.709Z,-3.69
2023-02-08T18:33:47.256Z,-3.54
2023-02-08T18:36:31.138Z,-3.62
2023-02-08T18:39:15.230Z,-3.66
2023-02-08T18:41:59.135Z,-3.31
2023-02-08T18:44:44.441Z,-3.82
2023-02-08T18:47:28.301Z,-3.78
2023-02-08T18:50:12.438Z,-3.91
2023-02-08T18:52:56.413Z,-3.91
2023-02-08T18:55:40.288Z,-3.82
2023-02-08T18:58:25.023Z,-3.66
2023-02-08T19:01:12.964Z,-3.84
2023-02-08T19:03:57.355Z,-3.80
2023-02-08T19:06:41.146Z,-4.02
2023-02-08T19:09:25.005Z,-4.07
2023-02-08T19:12:10.164Z,-3.80
2023-02-08T19:14:54.065Z,-3.97
2023-02-08T19:17:39.263Z,-4.04
2023-02-08T19:20:23.085Z,-4.20
2023-02-08T19:23:07.325Z,-4.15
2023-02-08T19:25:51.380Z,-4.12
2023-02-08T19:28:36.168Z,-4.29
2023-02-08T19:31:22.081Z,-4.12
2023-02-08T19:34:07.891Z,-3.94
2023-02-08T19:36:53.154Z,-4.17
2023-02-08T19:39:37.092Z,-4.11
2023-02-08T19:42:20.873Z,-3.91
2023-02-08T19:45:04.960Z,-4.16
2023-02-08T19:47:51.660Z,-4.36
2023-02-08T19:50:37.193Z,-4.09
2023-02-08T19:53:21.059Z,-3.99
2023-02-08T19:56:07.206Z,-3.97
2023-02-08T19:58:51.107Z,-4.02
2023-02-08T20:01:36.293Z,-3.88
2023-02-08T20:04:20.341Z,-4.10
2023-02-08T20:07:08.666Z,-3.85
2023-02-08T20:09:52.429Z,-4.09
2023-02-08T20:12:36.348Z,-4.09
2023-02-08T20:15:20.204Z,-4.19
2023-02-08T20:18:04.288Z,-3.90
2023-02-08T20:20:48.183Z,-3.96
2023-02-08T20:23:34.265Z,-4.01
2023-02-08T20:26:20.423Z,-3.77
2023-02-08T20:29:05.076Z,-3.81
2023-02-08T20:31:55.728Z,-3.98
2023-02-08T20:34:47.328Z,-3.83
2023-02-08T20:37:37.812Z,-3.58
2023-02-08T20:40:23.051Z,-3.74
2023-02-08T20:43:06.956Z,-3.92
2023-02-08T20:45:50.898Z,-4.06
2023-02-08T20:48:34.788Z,-4.02
2023-02-08T20:51:20.571Z,-3.73
2023-02-08T20:54:05.578Z,-3.88
2023-02-08T20:56:50.690Z,-4.31
2023-02-08T20:59:35.059Z,-3.83
2023-02-08T21:02:21.657Z,-3.82
2023-02-08T21:05:05.952Z,-3.85
2023-02-08T21:07:49.749Z,-3.93
2023-02-08T21:10:37.059Z,-4.27
2023-02-08T21:13:22.303Z,-3.96
2023-02-08T21:16:07.346Z,-4.34
2023-02-08T21:18:51.584Z,-4.14
2023-02-08T21:21:35.394Z,-4.10
2023-02-08T21:24:19.338Z,-4.05
2023-02-08T21:27:03.298Z,-4.32
2023-02-08T21:29:51.624Z,-4.31
2023-02-08T21:32:35.630Z,-3.92
2023-02-08T21:35:19.726Z,-4.08
2023-02-08T21:38:06.007Z,-4.00
2023-02-08T21:40:49.963Z,-4.06
2023-02-08T21:43:34.002Z,-4.36
2023-02-08T21:46:19.688Z,-4.05
2023-02-08T21:49:21.227Z,-4.01
2023-02-08T21:52:34.153Z,-4.19
2023-02-08T21:55:18.731Z,-3.94
2023-02-08T21:58:02.522Z,-4.08
2023-02-08T22:00:46.601Z,-4.04
2023-02-08T22:03:31.905Z,-4.08
2023-02-08T22:06:15.740Z,-4.30
2023-02-08T22:08:59.492Z,-4.38
2023-02-08T22:11:43.796Z,-4.06
2023-02-08T22:14:28.674Z,-4.17
2023-02-08T22:17:12.499Z,-4.10
2023-02-08T22:19:57.653Z,-4.19
2023-02-08T22:22:41.502Z,-4.29
2023-02-08T22:25:25.824Z,-4.06
2023-02-08T22:28:09.686Z,-4.26
2023-02-08T22:30:53.515Z,-4.06
2023-02-08T22:33:37.287Z,-4.14
2023-02-08T22:36:22.746Z,-4.17
2023-02-08T22:39:06.654Z,-4.53
2023-02-08T22:41:50.586Z,-4.14
2023-02-08T22:44:34.435Z,-4.09
2023-02-08T22:47:18.214Z,-4.32
2023-02-08T22:50:02.321Z,-4.14
2023-02-08T22:52:48.370Z,-4.47
2023-02-08T22:55:32.133Z,-4.23
2023-02-08T22:58:15.987Z,-4.34
2023-02-08T23:00:59.882Z,-4.37
2023-02-08T23:03:44.572Z,-4.44
2023-02-08T23:06:28.379Z,-4.22
2023-02-08T23:09:13.815Z,-4.24
2023-02-08T23:11:57.592Z,-4.25
2023-02-08T23:14:41.413Z,-4.59
2023-02-08T23:17:25.223Z,-4.47
2023-02-08T23:20:10.321Z,-4.44
2023-02-08T23:22:54.218Z,-4.57
2023-02-08T23:25:41.785Z,-4.58
2023-02-08T23:28:25.707Z,-4.79
2023-02-08T23:31:11.488Z,-4.60
2023-02-08T23:33:55.439Z,-4.63
2023-02-08T23:36:40.265Z,-4.80
2023-02-08T23:39:24.123Z,-4.85
2023-02-08T23:42:25.384Z,-4.91
2023-02-08T23:45:09.949Z,-4.98
2023-02-08T23:47:53.697Z,-5.06
2023-02-08T23:50:37.672Z,-5.29
2023-02-08T23:53:21.431Z,-5.48
2023-02-08T23:56:15.058Z,-5.48
2023-02-08T23:59:00.973Z,-5.67
